Domov               UVHVVR             MKGP            O straneh              
ZDRAVSTVENO VARSTVO RASTLIN
  MREŽA AGROMET. POSTAJ
 ► PROGNOSTIČNA OBVESTILA
AGROMETEOROLOŠKI PODATKI -
ARSO
OBVLADOVANJE TVEGANJ ZARADI
NEUGODNIH VREMENSKIH RAZMER
  ► NARAVNE NESREČE
  ► SUŠA/MOČA
  ► NAMAKANJE
  ► ŽLED (gozdarstvo)
KARTOGRAFSKI PRIKAZI
SPLETNE POVEZAVE
PROJEKTI IN PUBLIKACIJE

AGROMETEOROLOŠKA MREŽA: VREMENSKE POSTAJE IN FENOLOŠKA OPAZOVANJA

Pregled podatkov za lokacijo Dorfarje, meteorološka postaja 41375

Pregled senzorjev na lokaciji

ID Ime Zadnja
vrednost
Datum
zadnje
spremembe
Tip
senzorja
3846 Padavine (mm) 0 mm 12.12.2017 01:00 Generic 0.2 mm
3847 Relativna vlaga 2 m (% RH) 65,96 % RH 12.12.2017 01:00 Generic 0 - 100 %
3848 Temperatura 2 m (°C) 13,24 °C 12.12.2017 01:00 Generic -40 - +60 °C
3849 Omočenost lista (U) 0 U 12.12.2017 01:00 A730WET
3949 Temperatura 20 cm (°C) 12,6 °C 12.12.2017 01:00 Generic -40 - +60 °C
3950 Relativna vlaga 20 cm (% RH) 77,51 % RH 12.12.2017 01:00 Generic 0 - 100 %
4184 Omočenost lista 20 cm (U) 0 U 12.12.2017 01:00 A730WET

Pregled podatkov zadnjih 24 ur

Zap.
št.
Datum in čas Dorfarje
Omočenost
lista
Omočenost
lista
20
cm
Padavine Relativna
vlaga
2
m
Relativna
vlaga
20
cm
Temperatura
2
m
Temperatura
20
cm
0 12.12.2017 01:00 0 0 0 65,96 77,51 13,24 12,6
1 12.12.2017 00:30 0 0 0 68,79 80,22 12,8 12,21
2 12.12.2017 00:00 0 0 0 70,74 82,64 12,48 11,77
3 11.12.2017 23:30 0 0 0 68,99 81,27 12,77 12,01
4 11.12.2017 23:00 1 3 0 70,28 81,68 12,6 12,04
5 11.12.2017 22:30 8 10 0 70,11 82,59 12,6 11,94
6 11.12.2017 22:00 10 10 0,4 78,1 90,74 11,16 10,26
7 11.12.2017 21:30 10 10 0 78,27 90,23 10,74 9,96
8 11.12.2017 21:00 10 10 0,2 73,82 85,69 11,7 10,94
9 11.12.2017 20:30 10 10 0 82,47 93,26 8,74 8,06
10 11.12.2017 20:00 10 10 0 84,52 94,68 7,5 6,79
11 11.12.2017 19:30 10 10 0 76,87 88,74 8,86 7,89
12 11.12.2017 19:00 6 10 0 68,28 84,91 10,67 8,74
13 11.12.2017 18:30 0 0 0 66,62 81,88 10,7 8,82
14 11.12.2017 18:00 0 0 0 72,77 86,06 9,87 8,11
15 11.12.2017 17:30 0 0 0 79,61 91,06 8,6 7,06
16 11.12.2017 17:00 0 3 0 82,3 93,09 7,64 6,3
17 11.12.2017 16:30 0 8 0 79,8 90,77 7,99 6,45
18 11.12.2017 16:00 1 10 0 73,8 87,62 9,87 7,96
19 11.12.2017 15:30 4 10 0 76,31 89,74 10,06 8,03
20 11.12.2017 15:00 9 10 0 81,9 93,33 8,82 7,16
21 11.12.2017 14:30 10 10 0 78,66 89,35 10,4 8,74
22 11.12.2017 14:00 10 10 0,2 84,42 98,24 10,01 8,47
23 11.12.2017 13:30 9 10 0 98,8 99,93 7,77 6,57
24 11.12.2017 13:00 5 9 0,2 99,93 99,93 6,13 5,27
25 11.12.2017 12:30 5 8 0,2 99,93 99,93 5,89 5,15
26 11.12.2017 12:00 5 9 0,2 99,93 99,93 5,47 4,66
27 11.12.2017 11:30 5 9 0,2 99,93 99,93 4,47 3,88
28 11.12.2017 11:00 6 9 0 99,93 99,93 3,3 2,74
29 11.12.2017 10:30 8 10 0,2 99,93 99,93 2,54 2,32
30 11.12.2017 10:00 4 8 0 99,93 99,93 1,47 1,25
31 11.12.2017 09:30 4 8 0,4 99,93 99,93 1,93 1,51
32 11.12.2017 09:00 3 6 0,2 99,93 99,93 1,27 0,93
33 11.12.2017 08:30 3 8 0,6 99,93 99,93 1,49 1,17
34 11.12.2017 08:00 2 8 0,4 99,93 99,93 1,47 1,2
35 11.12.2017 07:30 2 7 0,8 99,93 99,93 0,93 0,88
36 11.12.2017 07:00 2 8 1,2 99,93 99,93 1,49 1,12
37 11.12.2017 06:30 2 9 1,8 99,93 99,93 1,27 0,95
38 11.12.2017 06:00 2 9 1,8 99,93 99,93 0,81 0,66
39 11.12.2017 05:30 2 9 1,8 99,93 99,93 0,73 0,59
40 11.12.2017 05:00 2 9 1,2 99,93 99,93 0,88 0,73
41 11.12.2017 04:30 2 10 2 99,93 99,93 0,9 0,78
42 11.12.2017 04:00 2 10 2 99,93 99,93 0,54 0,46
43 11.12.2017 03:30 2 10 1,4 99,93 99,93 0,54 0,49
44 11.12.2017 03:00 2 10 2,8 99,93 99,93 0,63 0,56
45 11.12.2017 02:30 2 10 2,6 99,93 99,93 0,54 0,46
46 11.12.2017 02:00 3 10 3,2 99,93 99,93 0,51 0,46
© 2011 Ministrstvo za kmetijstvo, gozdarstvo in prehrano. Vse pravice pridržane.